Time;durP1;ratioP1;P1;durP2;ratioP2;P2;SDS_P1;SDS_P2;PMS_P1;PMS_P2;Temp;Humidity;BMP_temperature;BMP_pressure;BME280_temperature;BME280_humidity;BME280_pressure;Samples;Min_cycle;Max_cycle;Signal;HPM_P1;HPM_P2
2023/02/18 00:01:29;;;;;;;12.50;2.70;;;;;;;6.22;88.36;100561.63;5005575;28;20073;-82
2023/02/18 00:03:57;;;;;;;9.80;2.97;;;;;;;6.21;87.24;100573.88;5025443;28;20146;-81
2023/02/18 00:06:26;;;;;;;10.93;2.97;;;;;;;6.20;87.43;100564.25;5006519;28;20505;-82
2023/02/18 00:08:53;;;;;;;12.67;3.00;;;;;;;6.19;87.47;100567.78;5005939;28;20132;-81
2023/02/18 00:11:21;;;;;;;13.83;2.63;;;;;;;6.10;87.61;100565.19;5006810;28;20105;-82
2023/02/18 00:13:52;;;;;;;9.00;2.77;;;;;;;6.12;88.33;100563.41;5008062;28;20125;-82
2023/02/18 00:16:19;;;;;;;8.70;3.33;;;;;;;6.06;87.02;100560.84;4992847;28;20038;-86
2023/02/18 00:18:47;;;;;;;11.30;4.17;;;;;;;6.08;88.84;100569.56;5012608;28;20059;-82
2023/02/18 00:21:14;;;;;;;11.70;3.00;;;;;;;6.12;87.79;100562.56;4997344;28;20500;-82
2023/02/18 00:23:42;;;;;;;12.83;3.90;;;;;;;6.09;87.71;100571.31;4997148;28;20075;-83
2023/02/18 00:26:12;;;;;;;11.63;3.90;;;;;;;6.10;87.08;100565.19;5011989;28;20034;-84
2023/02/18 00:28:41;;;;;;;14.03;4.20;;;;;;;6.03;88.07;100555.59;5009562;28;20044;-82
2023/02/18 00:31:14;;;;;;;13.90;3.37;;;;;;;6.06;88.65;100559.97;5010635;28;20037;-82
2023/02/18 00:33:45;;;;;;;13.03;3.60;;;;;;;6.06;89.32;100558.22;4999390;28;20064;-82
2023/02/18 00:36:16;;;;;;;11.60;4.70;;;;;;;5.96;88.25;100563.47;5011606;28;20044;-83
2023/02/18 00:38:51;;;;;;;15.60;4.17;;;;;;;5.99;88.84;100561.75;4997130;28;20323;-82
2023/02/18 00:41:20;;;;;;;12.07;3.80;;;;;;;5.91;89.29;100560.88;5018520;28;20068;-83
2023/02/18 00:43:47;;;;;;;10.67;2.97;;;;;;;5.89;88.61;100571.34;4988832;28;20038;-82
2023/02/18 00:46:15;;;;;;;6.40;2.77;;;;;;;5.97;89.31;100570.47;4999310;28;20054;-83
2023/02/18 00:48:42;;;;;;;11.23;3.20;;;;;;;5.97;88.61;100578.34;5015188;28;20049;-82
2023/02/18 00:51:09;;;;;;;13.33;3.10;;;;;;;5.88;89.97;100576.56;5039864;28;20474;-82
2023/02/18 00:53:37;;;;;;;11.53;3.10;;;;;;;5.93;88.55;100578.34;5021684;28;20060;-82
2023/02/18 00:56:08;;;;;;;9.97;3.23;;;;;;;5.82;90.95;100567.00;5006750;28;20045;-83
2023/02/18 00:58:35;;;;;;;14.93;3.53;;;;;;;5.92;87.72;100576.63;5011404;28;20045;-83
2023/02/18 01:01:04;;;;;;;12.60;3.93;;;;;;;5.83;90.08;100580.97;5006675;28;20169;-81
2023/02/18 01:03:34;;;;;;;8.03;2.87;;;;;;;5.79;91.50;100582.72;5012911;28;20052;-82
2023/02/18 01:06:03;;;;;;;12.03;3.03;;;;;;;5.76;91.42;100587.09;4995053;28;20046;-83
2023/02/18 01:08:30;;;;;;;14.37;2.80;;;;;;;5.72;91.87;100586.25;4992505;28;20041;-80
2023/02/18 01:10:57;;;;;;;7.97;3.10;;;;;;;5.74;92.30;100581.00;5010604;28;20049;-82
2023/02/18 01:13:30;;;;;;;14.47;3.47;;;;;;;5.68;93.82;100601.97;5011236;28;20045;-81
2023/02/18 01:15:57;;;;;;;9.10;2.63;;;;;;;5.68;93.67;100597.59;5007457;28;20131;-82
2023/02/18 01:18:25;;;;;;;10.60;3.73;;;;;;;5.67;93.85;100610.72;4991741;28;20107;-82
2023/02/18 01:20:56;;;;;;;12.27;3.53;;;;;;;5.68;93.63;100594.13;5004078;28;20523;-83
2023/02/18 01:23:22;;;;;;;12.37;3.17;;;;;;;5.61;92.58;100594.13;5026113;28;20038;-82
2023/02/18 01:25:51;;;;;;;10.83;3.30;;;;;;;5.70;93.64;100594.97;5004093;28;20572;-82
2023/02/18 01:28:19;;;;;;;11.87;3.63;;;;;;;5.69;94.59;100601.09;5006229;28;20046;-83
2023/02/18 01:30:46;;;;;;;12.97;4.20;;;;;;;5.67;92.60;100597.63;5013276;28;20400;-81
2023/02/18 01:33:13;;;;;;;10.17;2.90;;;;;;;5.69;93.64;100603.72;5019742;28;20727;-82
2023/02/18 01:35:40;;;;;;;12.97;3.20;;;;;;;5.67;93.91;100595.00;5010016;28;20072;-82
2023/02/18 01:38:08;;;;;;;11.53;3.40;;;;;;;5.72;92.95;100581.00;5011546;28;20133;-83
2023/02/18 01:40:35;;;;;;;12.43;3.73;;;;;;;5.72;94.23;100586.25;5012256;28;20037;-83
2023/02/18 01:43:04;;;;;;;10.27;3.10;;;;;;;5.68;94.31;100596.72;5008109;28;20540;-82
2023/02/18 01:45:34;;;;;;;10.93;2.93;;;;;;;5.69;93.38;100585.38;4992952;28;20506;-83
2023/02/18 01:48:06;;;;;;;12.70;3.20;;;;;;;5.72;94.39;100595.84;5008373;28;20100;-83
2023/02/18 01:50:35;;;;;;;10.03;3.73;;;;;;;5.70;94.44;100594.97;4992720;28;20048;-84
2023/02/18 01:53:02;;;;;;;13.67;3.67;;;;;;;5.70;95.25;100608.09;4993146;28;20058;-84
2023/02/18 01:55:33;;;;;;;10.47;3.47;;;;;;;5.75;94.13;100615.06;5003805;28;20037;-85
2023/02/18 01:58:01;;;;;;;12.20;3.60;;;;;;;5.76;94.89;100611.56;4999946;28;20399;-83
2023/02/18 02:00:29;;;;;;;10.77;3.10;;;;;;;5.67;95.51;100608.09;5023647;28;20045;-83
2023/02/18 02:02:56;;;;;;;13.07;3.90;;;;;;;5.73;95.75;100602.84;5010126;28;20072;-84
2023/02/18 02:05:23;;;;;;;9.20;3.33;;;;;;;5.63;95.73;100605.50;4989297;28;20071;-81
2023/02/18 02:07:51;;;;;;;11.50;2.90;;;;;;;5.65;96.13;100601.13;5006495;28;20034;-82
2023/02/18 02:10:21;;;;;;;7.50;2.70;;;;;;;5.64;96.97;100611.59;4995004;28;20046;-83
2023/02/18 02:12:58;;;;;;;10.80;3.00;;;;;;;5.58;97.90;100615.09;5007748;28;20128;-81
2023/02/18 02:15:39;;;;;;;13.47;4.10;;;;;;;5.50;97.59;100608.97;5041047;28;20049;-84
2023/02/18 02:18:34;;;;;;;15.27;3.63;;;;;;;5.52;98.31;100606.34;5013488;28;20038;-82
2023/02/18 02:21:23;;;;;;;8.40;3.08;;;;;;;5.43;98.73;100609.84;5022741;28;20053;-83
2023/02/18 02:24:07;;;;;;;8.30;2.47;;;;;;;5.42;99.53;100617.72;5031216;28;20125;-84
2023/02/18 02:26:58;;;;;;;11.60;3.23;;;;;;;5.38;99.89;100603.72;4992758;28;20054;-84
2023/02/18 02:29:48;;;;;;;12.70;4.73;;;;;;;5.35;100.00;100604.63;5025949;28;20482;-81
2023/02/18 02:32:34;;;;;;;11.47;3.10;;;;;;;5.30;100.00;100597.66;5015390;28;20045;-82
2023/02/18 02:35:08;;;;;;;11.10;3.53;;;;;;;5.28;100.00;100607.22;5025092;28;20577;-83
2023/02/18 02:37:41;;;;;;;17.33;4.50;;;;;;;5.19;100.00;100594.13;5006123;28;20088;-82
2023/02/18 02:40:37;;;;;;;11.17;2.90;;;;;;;5.28;100.00;100604.63;4988965;28;20139;-82
2023/02/18 02:43:11;;;;;;;10.03;2.80;;;;;;;5.21;100.00;100611.63;4996007;28;20045;-82
2023/02/18 02:46:05;;;;;;;9.93;3.30;;;;;;;5.16;100.00;100617.72;4994704;28;20043;-82
2023/02/18 02:48:52;;;;;;;11.27;3.25;;;;;;;5.17;100.00;100601.13;5025871;28;20530;-84
2023/02/18 02:51:32;;;;;;;16.17;3.77;;;;;;;5.21;100.00;100609.00;5009145;28;20052;-82
2023/02/18 02:54:18;;;;;;;14.10;3.67;;;;;;;5.17;100.00;100622.06;5010763;28;20045;-82
2023/02/18 02:56:45;;;;;;;15.63;3.30;;;;;;;5.19;100.00;100613.34;4988400;28;20092;-81
2023/02/18 02:59:21;;;;;;;14.00;3.03;;;;;;;5.25;100.00;100625.56;5010516;28;20029;-82
2023/02/18 03:02:13;;;;;;;11.00;2.83;;;;;;;5.24;100.00;100619.47;5003933;28;20033;-83
2023/02/18 03:05:09;;;;;;;10.97;2.73;;;;;;;5.24;100.00;100629.06;5027034;28;20056;-82
2023/02/18 03:07:57;;;;;;;13.40;4.43;;;;;;;5.33;100.00;100621.22;5026783;28;20064;-83
2023/02/18 03:10:39;;;;;;;14.47;3.83;;;;;;;5.25;100.00;100621.22;4995515;28;20049;-81
2023/02/18 03:13:06;;;;;;;11.33;2.77;;;;;;;5.32;100.00;100614.22;5010293;28;20518;-82
2023/02/18 03:15:42;;;;;;;14.87;3.03;;;;;;;5.33;100.00;100622.09;5016315;28;20049;-80
2023/02/18 03:18:42;;;;;;;7.93;2.83;;;;;;;5.34;100.00;100612.47;5012503;28;20057;-82
2023/02/18 03:21:12;;;;;;;10.13;2.90;;;;;;;5.36;100.00;100608.09;5020217;28;20049;-82
2023/02/18 03:23:45;;;;;;;15.33;4.03;;;;;;;5.37;100.00;100609.84;5006704;28;20033;-83
2023/02/18 03:26:13;;;;;;;14.70;2.93;;;;;;;5.35;100.00;100601.13;5027858;28;20041;-82
2023/02/18 03:28:40;;;;;;;19.93;4.30;;;;;;;5.29;100.00;100599.38;4999354;28;20072;-81
2023/02/18 03:31:13;;;;;;;9.87;3.07;;;;;;;5.20;100.00;100594.13;4996098;28;20092;-82
2023/02/18 03:33:45;;;;;;;14.23;3.60;;;;;;;5.24;100.00;100602.88;5026919;28;20045;-81
2023/02/18 03:36:12;;;;;;;13.27;3.60;;;;;;;5.20;100.00;100603.72;4995753;28;20049;-83
2023/02/18 03:38:45;;;;;;;12.10;2.90;;;;;;;5.28;100.00;100607.22;4994115;28;20119;-82
2023/02/18 03:41:12;;;;;;;6.83;3.23;;;;;;;5.26;100.00;100614.22;5001324;23;20465;-80
2023/02/18 03:43:40;;;;;;;10.90;3.40;;;;;;;5.24;100.00;100622.09;5009294;28;20495;-80
2023/02/18 03:46:07;;;;;;;12.80;3.73;;;;;;;5.22;100.00;100617.72;4989469;28;20046;-81
2023/02/18 03:48:34;;;;;;;14.07;3.80;;;;;;;5.15;100.00;100621.22;4988740;28;20050;-81
2023/02/18 03:51:01;;;;;;;15.53;2.97;;;;;;;5.20;100.00;100614.22;5005735;28;20116;-82
2023/02/18 03:53:27;;;;;;;12.27;3.47;;;;;;;5.17;100.00;100622.06;5004319;28;20065;-80
2023/02/18 03:55:54;;;;;;;12.63;3.23;;;;;;;5.09;100.00;100622.94;4991564;28;20041;-81
2023/02/18 03:58:21;;;;;;;9.07;3.13;;;;;;;5.06;100.00;100620.31;4987737;28;20415;-81
2023/02/18 04:00:47;;;;;;;12.27;3.83;;;;;;;5.06;100.00;100620.31;4989229;28;20594;-80
2023/02/18 04:03:14;;;;;;;10.93;3.33;;;;;;;5.09;100.00;100630.78;4973451;28;20046;-81
2023/02/18 04:05:41;;;;;;;10.87;2.77;;;;;;;4.95;100.00;100639.50;5004891;28;20046;-82
2023/02/18 04:08:07;;;;;;;7.83;2.50;;;;;;;5.02;100.00;100643.88;5003879;28;20178;-80
2023/02/18 04:10:34;;;;;;;10.67;2.70;;;;;;;5.01;100.00;100643.00;5003553;28;20394;-81
2023/02/18 04:13:01;;;;;;;12.37;3.87;;;;;;;4.97;100.00;100636.03;4986152;28;20042;-81
2023/02/18 04:15:27;;;;;;;12.70;2.73;;;;;;;4.96;100.00;100634.28;5001646;28;20038;-81
2023/02/18 04:17:54;;;;;;;16.73;3.20;;;;;;;4.92;100.00;100639.50;4988512;28;20052;-80
2023/02/18 04:20:21;;;;;;;9.47;2.83;;;;;;;4.81;100.00;100644.72;4990477;28;20048;-79
2023/02/18 04:22:48;;;;;;;5.97;2.70;;;;;;;4.82;100.00;100641.22;4991524;28;20041;-83
2023/02/18 04:25:14;;;;;;;8.67;2.53;;;;;;;4.85;100.00;100635.09;5003839;28;20042;-81
2023/02/18 04:27:41;;;;;;;13.40;3.37;;;;;;;4.79;100.00;100638.56;5008965;28;20076;-81
2023/02/18 04:30:08;;;;;;;11.70;2.93;;;;;;;4.76;100.00;100646.44;5007958;28;20037;-81
2023/02/18 04:32:35;;;;;;;11.33;4.10;;;;;;;4.74;100.00;100648.19;5005829;28;20546;-81
2023/02/18 04:35:02;;;;;;;11.13;3.20;;;;;;;4.67;100.00;100633.31;5001881;28;20137;-82
2023/02/18 04:37:28;;;;;;;9.53;3.60;;;;;;;4.66;100.00;100648.16;4991930;28;20427;-78
2023/02/18 04:39:55;;;;;;;17.97;3.90;;;;;;;4.69;100.00;100642.03;4999478;28;20129;-81
2023/02/18 04:42:22;;;;;;;11.10;2.97;;;;;;;4.64;100.00;100646.41;5016031;28;20057;-82
2023/02/18 04:44:49;;;;;;;5.80;2.47;;;;;;;4.58;100.00;100655.09;4976732;28;20083;-81
2023/02/18 04:47:16;;;;;;;8.33;2.87;;;;;;;4.65;100.00;100646.41;4987858;28;20088;-82
2023/02/18 04:49:42;;;;;;;9.43;3.00;;;;;;;4.61;100.00;100649.88;5008513;28;20038;-81
2023/02/18 04:52:09;;;;;;;11.83;3.20;;;;;;;4.52;100.00;100652.44;5007357;28;20534;-80
2023/02/18 04:54:35;;;;;;;9.17;3.27;;;;;;;4.50;100.00;100646.34;4991897;28;20052;-81
2023/02/18 04:57:02;;;;;;;13.03;3.10;;;;;;;4.52;100.00;100652.44;4988448;28;20038;-79
2023/02/18 04:59:29;;;;;;;9.77;3.37;;;;;;;4.47;100.00;100659.41;5021038;28;20446;-80
2023/02/18 05:01:55;;;;;;;12.87;3.93;;;;;;;4.52;100.00;100655.94;5009840;28;20092;-81
2023/02/18 05:04:24;;;;;;;9.70;2.83;;;;;;;4.47;100.00;100659.41;5012610;28;20034;-80
2023/02/18 05:06:51;;;;;;;19.80;4.30;;;;;;;4.47;100.00;100646.34;4992225;28;20499;-80
2023/02/18 05:09:18;;;;;;;10.83;3.73;;;;;;;4.57;100.00;100660.31;5011720;28;20042;-80
2023/02/18 05:11:44;;;;;;;9.70;3.90;;;;;;;4.53;100.00;100659.41;4993776;28;20038;-79
2023/02/18 05:14:11;;;;;;;16.00;3.40;;;;;;;4.45;100.00;100654.16;5010407;28;20080;-79
2023/02/18 05:16:38;;;;;;;9.60;2.60;;;;;;;4.39;100.00;100650.66;5009475;28;20037;-81
2023/02/18 05:19:04;;;;;;;16.27;3.57;;;;;;;4.43;100.00;100666.38;5007581;28;20037;-82
2023/02/18 05:21:32;;;;;;;9.07;3.57;;;;;;;4.46;100.00;100658.56;5011273;28;20472;-81
2023/02/18 05:23:58;;;;;;;12.17;3.53;;;;;;;4.51;100.00;100659.41;5022061;28;20042;-80
2023/02/18 05:26:25;;;;;;;10.77;3.20;;;;;;;4.38;100.00;100662.88;5008821;28;20577;-81
2023/02/18 05:28:51;;;;;;;13.33;3.07;;;;;;;4.42;100.00;100663.75;5003762;28;20037;-80
2023/02/18 05:31:18;;;;;;;12.13;3.17;;;;;;;4.42;100.00;100662.00;5010772;28;20049;-80
2023/02/18 05:33:48;;;;;;;12.30;3.10;;;;;;;4.43;100.00;100670.72;5087102;22;20049;31
2023/02/18 05:36:14;;;;;;;11.20;2.90;;;;;;;4.40;100.00;100663.75;4985182;28;20071;-80
2023/02/18 05:38:41;;;;;;;8.20;3.50;;;;;;;4.49;100.00;100660.28;4995681;28;20394;-81
2023/02/18 05:41:08;;;;;;;9.47;2.47;;;;;;;4.47;100.00;100662.91;4958627;28;20507;-82
2023/02/18 05:44:29;;;;;;;9.77;2.90;;;;;;;4.55;100.00;100659.47;4976452;28;20038;-80
2023/02/18 05:46:21;;;;;;;11.80;2.80;;;;;;;4.52;100.00;100655.94;5005506;28;20112;-80
2023/02/18 05:48:48;;;;;;;6.23;2.43;;;;;;;4.57;100.00;100665.56;4987610;28;20384;-81
2023/02/18 05:51:14;;;;;;;7.57;2.50;;;;;;;4.60;100.00;100665.56;5006061;28;20749;-79
2023/02/18 05:53:41;;;;;;;6.53;2.47;;;;;;;4.57;100.00;100660.31;4971719;28;20042;-82
2023/02/18 05:56:08;;;;;;;8.03;2.50;;;;;;;4.62;100.00;100662.06;4991979;28;20431;-80
2023/02/18 05:58:35;;;;;;;11.03;3.63;;;;;;;4.70;100.00;100665.59;4976202;28;20504;-80
2023/02/18 06:01:02;;;;;;;10.93;2.87;;;;;;;4.74;100.00;100671.72;4956604;28;20046;-80
2023/02/18 06:03:29;;;;;;;7.00;2.13;;;;;;;4.80;100.00;100671.75;4969804;28;20064;-79
2023/02/18 06:05:56;;;;;;;9.33;3.77;;;;;;;4.85;100.00;100663.91;4987149;28;20039;-81
2023/02/18 06:08:23;;;;;;;8.30;2.83;;;;;;;4.90;100.00;100649.09;4988503;28;20137;-79
2023/02/18 06:10:50;;;;;;;8.17;2.80;;;;;;;4.85;100.00;100653.44;4990764;28;20038;-80
2023/02/18 06:13:16;;;;;;;11.30;2.23;;;;;;;4.83;100.00;100648.19;4975278;28;20108;-81
2023/02/18 06:15:43;;;;;;;10.03;2.80;;;;;;;4.84;100.00;100644.72;4991577;28;20039;-80
2023/02/18 06:18:10;;;;;;;9.73;2.80;;;;;;;4.89;100.00;100655.22;5007579;28;20060;-81
2023/02/18 06:20:38;;;;;;;11.43;3.03;;;;;;;4.90;100.00;100649.09;4991651;28;20587;-81
2023/02/18 06:23:05;;;;;;;12.13;4.00;;;;;;;4.94;100.00;100656.94;4983723;28;20415;-82
2023/02/18 06:25:33;;;;;;;11.67;4.73;;;;;;;5.02;100.00;100639.50;4991410;28;20070;-82
2023/02/18 06:28:00;;;;;;;10.63;2.53;;;;;;;4.99;100.00;100644.75;4974917;28;20050;-80
2023/02/18 06:30:27;;;;;;;7.97;2.63;;;;;;;5.02;100.00;100644.75;5005960;28;20089;-81
2023/02/18 06:32:53;;;;;;;15.00;4.10;;;;;;;5.04;100.00;100644.75;5009904;28;20718;-82
2023/02/18 06:35:20;;;;;;;8.40;2.17;;;;;;;5.07;100.00;100636.91;4974232;28;20465;-80
2023/02/18 06:37:47;;;;;;;9.50;3.77;;;;;;;5.07;100.00;100636.91;4988036;28;20049;-80
2023/02/18 06:40:14;;;;;;;9.57;4.30;;;;;;;5.11;100.00;100636.03;4978114;28;20042;-80
2023/02/18 06:42:41;;;;;;;9.17;2.90;;;;;;;5.09;100.00;100629.94;5002119;28;20044;-80
2023/02/18 06:45:07;;;;;;;7.33;2.77;;;;;;;5.16;100.00;100629.06;4992351;28;20393;-83
2023/02/18 06:47:34;;;;;;;11.40;2.17;;;;;;;5.17;100.00;100632.56;4990456;28;20558;-81
2023/02/18 06:50:01;;;;;;;7.00;2.40;;;;;;;5.21;100.00;100640.44;4974953;28;20035;-81
2023/02/18 06:52:29;;;;;;;9.27;2.97;;;;;;;5.19;100.00;100636.03;4973762;28;20034;-80
2023/02/18 06:54:56;;;;;;;9.10;4.17;;;;;;;5.19;100.00;100639.53;4974483;28;20541;-81
2023/02/18 06:57:23;;;;;;;8.80;3.53;;;;;;;5.25;100.00;100636.06;4974968;28;20042;-80
2023/02/18 06:59:49;;;;;;;6.53;2.63;;;;;;;5.25;100.00;100643.91;4989595;28;20030;-82
2023/02/18 07:02:16;;;;;;;7.27;2.10;;;;;;;5.25;100.00;100650.03;4974173;28;20495;-81
2023/02/18 07:04:44;;;;;;;7.10;2.30;;;;;;;5.27;100.00;100640.41;4972957;28;20129;-80
2023/02/18 07:07:11;;;;;;;7.30;2.13;;;;;;;5.28;100.00;100631.69;4973439;28;20034;-81
2023/02/18 07:09:38;;;;;;;10.20;3.03;;;;;;;5.31;99.49;100630.81;4973508;28;20085;-82
2023/02/18 07:12:05;;;;;;;7.10;2.57;;;;;;;5.27;100.00;100635.16;4989878;28;20053;-80
2023/02/18 07:14:32;;;;;;;5.63;2.50;;;;;;;5.28;100.00;100636.03;4975292;28;20046;-81
2023/02/18 07:16:58;;;;;;;9.70;3.23;;;;;;;5.32;100.00;100627.34;4974308;28;20092;-82
2023/02/18 07:19:25;;;;;;;10.17;4.93;;;;;;;5.34;99.14;100617.72;5005606;28;20088;-81
2023/02/18 07:21:53;;;;;;;10.87;4.73;;;;;;;5.34;100.00;100621.22;4972391;28;20514;-80
2023/02/18 07:24:20;;;;;;;9.63;3.30;;;;;;;5.39;99.53;100623.84;4991389;28;20057;-79
2023/02/18 07:26:46;;;;;;;11.17;3.90;;;;;;;5.33;100.00;100615.97;5002423;28;20452;-80
2023/02/18 07:29:13;;;;;;;11.87;3.27;;;;;;;5.30;99.29;100618.59;4989623;28;20351;-81
2023/02/18 07:31:40;;;;;;;5.43;3.20;;;;;;;5.36;100.00;100619.47;5004314;28;20505;-80
2023/02/18 07:34:07;;;;;;;7.13;3.00;;;;;;;5.44;100.00;100614.22;4987586;28;20038;-81
2023/02/18 07:36:34;;;;;;;5.80;2.47;;;;;;;5.50;100.00;100605.50;4972384;28;20133;-80
2023/02/18 07:39:01;;;;;;;9.23;2.67;;;;;;;5.58;100.00;100615.09;4988943;28;20466;-82
2023/02/18 07:41:28;;;;;;;4.57;1.80;;;;;;;5.70;100.00;100615.94;4998388;28;20038;-80
2023/02/18 07:43:54;;;;;;;9.17;2.07;;;;;;;5.71;98.24;100615.94;5019544;28;20050;-80
2023/02/18 07:46:21;;;;;;;4.27;1.70;;;;;;;5.71;98.82;100610.69;4956878;28;20065;-81
2023/02/18 07:48:48;;;;;;;6.47;1.90;;;;;;;5.75;99.30;100608.97;4989898;28;20121;-82
2023/02/18 07:51:14;;;;;;;4.77;2.57;;;;;;;5.74;99.12;100615.94;4990426;28;20474;-81
2023/02/18 07:53:41;;;;;;;6.93;2.93;;;;;;;5.70;98.76;100614.19;4972374;28;20038;-83
2023/02/18 07:56:08;;;;;;;5.37;2.33;;;;;;;5.75;99.10;100596.72;4958946;28;20049;-82
2023/02/18 07:58:36;;;;;;;8.20;2.17;;;;;;;5.80;98.49;100610.72;4972844;28;20043;-80
2023/02/18 08:01:08;;;;;;;8.43;3.30;;;;;;;5.77;96.83;100592.34;4973446;28;20043;-80
2023/02/18 08:03:35;;;;;;;7.73;2.60;;;;;;;5.76;98.97;100592.34;4971713;28;20495;-82
2023/02/18 08:06:03;;;;;;;7.90;2.53;;;;;;;5.86;96.70;100587.06;4969632;28;20113;-81
2023/02/18 08:08:31;;;;;;;7.47;3.07;;;;;;;5.93;98.09;100590.59;4957704;28;20043;-82
2023/02/18 08:11:01;;;;;;;10.07;3.83;;;;;;;5.90;98.07;100590.59;4987338;28;20046;-82
2023/02/18 08:13:43;;;;;;;5.23;3.03;;;;;;;5.99;96.84;100593.22;4980300;28;20415;-81
2023/02/18 08:16:13;;;;;;;11.00;3.77;;;;;;;6.10;97.00;100587.91;4971820;28;20043;-80
2023/02/18 08:18:40;;;;;;;8.13;2.27;;;;;;;6.11;95.00;100580.03;4968382;28;20070;-81
2023/02/18 08:21:06;;;;;;;7.67;3.27;;;;;;;6.18;97.53;100580.91;4989789;28;20054;-81
2023/02/18 08:23:33;;;;;;;4.67;2.00;;;;;;;6.31;96.94;100579.97;4978289;28;20038;-80
2023/02/18 08:26:00;;;;;;;12.20;4.60;;;;;;;6.40;95.45;100572.06;4992830;28;20133;-80
2023/02/18 08:28:26;;;;;;;6.83;2.80;;;;;;;6.48;94.75;100567.66;4961375;28;21656;-83
2023/02/18 08:30:53;;;;;;;13.67;5.40;;;;;;;6.52;95.34;100572.88;4988862;28;20153;-80
2023/02/18 08:33:21;;;;;;;6.07;2.43;;;;;;;6.57;94.91;100566.72;4991044;28;20096;-82
2023/02/18 08:35:50;;;;;;;6.03;2.80;;;;;;;6.71;94.73;100561.38;4974787;28;20045;-81
2023/02/18 08:38:17;;;;;;;5.27;1.97;;;;;;;6.71;93.95;100567.50;4989397;28;20474;-81
2023/02/18 08:40:44;;;;;;;6.33;2.27;;;;;;;6.75;94.14;100550.84;4978004;28;20093;-80
2023/02/18 08:43:11;;;;;;;12.23;5.63;;;;;;;6.75;95.39;100548.22;4992574;28;20051;-81
2023/02/18 08:45:38;;;;;;;12.60;4.97;;;;;;;6.76;94.65;100554.34;4993097;28;20042;-80
2023/02/18 08:48:07;;;;;;;12.93;2.93;;;;;;;6.71;93.15;100561.38;4961010;28;20112;-81
2023/02/18 08:50:46;;;;;;;6.17;1.60;;;;;;;6.72;94.12;100556.09;4992105;28;20038;-81
2023/02/18 08:53:12;;;;;;;8.30;2.50;;;;;;;6.78;93.72;100558.69;4992747;28;20404;-80
2023/02/18 08:55:40;;;;;;;5.03;2.20;;;;;;;6.74;95.07;100558.75;4992062;28;20447;-81
2023/02/18 08:58:07;;;;;;;5.63;1.77;;;;;;;6.73;95.71;100560.50;4990062;28;20034;-81
2023/02/18 09:00:34;;;;;;;5.00;1.97;;;;;;;6.74;94.95;100556.13;4973957;28;20046;-81
2023/02/18 09:03:01;;;;;;;3.60;1.47;;;;;;;6.77;93.31;100549.09;4975059;28;20050;-82
2023/02/18 09:05:28;;;;;;;8.73;2.37;;;;;;;6.83;93.89;100542.94;4975051;28;20047;-83
2023/02/18 09:07:55;;;;;;;5.87;1.53;;;;;;;6.74;94.46;100549.13;4996013;28;20046;-80
2023/02/18 09:10:21;;;;;;;15.80;7.73;;;;;;;6.78;95.93;100534.19;4977051;28;20050;-82
2023/02/18 09:12:48;;;;;;;5.80;2.97;;;;;;;6.78;97.01;100537.69;4972689;28;20446;-81
2023/02/18 09:15:15;;;;;;;8.93;2.67;;;;;;;6.71;97.12;100535.13;4975354;28;20038;-81
2023/02/18 09:17:42;;;;;;;9.03;2.50;;;;;;;6.72;99.47;100529.84;4961634;28;20122;-81
2023/02/18 09:20:09;;;;;;;4.33;1.60;;;;;;;6.77;99.54;100527.22;4992327;28;20561;-81
2023/02/18 09:22:35;;;;;;;5.50;1.73;;;;;;;6.73;100.00;100525.50;4977188;28;20058;-81
2023/02/18 09:25:03;;;;;;;9.63;4.73;;;;;;;6.73;100.00;100528.13;5008558;28;20038;-81
2023/02/18 09:27:29;;;;;;;6.03;3.13;;;;;;;6.79;100.00;100517.56;4975908;28;20050;-82
2023/02/18 09:29:56;;;;;;;5.97;2.33;;;;;;;6.74;98.95;100511.50;4990451;28;20410;-83
2023/02/18 09:32:23;;;;;;;4.47;1.50;;;;;;;6.87;100.00;100505.25;4975845;28;20042;-81
2023/02/18 09:35:01;;;;;;;5.73;1.77;;;;;;;6.84;100.00;100507.91;5003530;28;20043;-82
2023/02/18 09:37:28;;;;;;;5.83;1.57;;;;;;;6.83;100.00;100497.41;4988945;28;20125;-81
2023/02/18 09:39:55;;;;;;;4.40;1.50;;;;;;;6.89;100.00;100492.97;4989376;28;20039;-83
2023/02/18 09:42:28;;;;;;;7.33;1.40;;;;;;;6.87;100.00;100470.25;4990809;28;20471;-81
2023/02/18 09:44:59;;;;;;;3.67;1.30;;;;;;;6.80;100.00;100469.41;4988154;28;20050;-81
2023/02/18 09:47:42;;;;;;;5.47;1.97;;;;;;;6.71;100.00;100459.00;4989902;28;20073;-81
2023/02/18 09:50:23;;;;;;;3.47;1.40;;;;;;;6.60;100.00;100466.94;4975528;28;20541;-82
2023/02/18 09:52:51;;;;;;;3.87;1.50;;;;;;;6.46;100.00;100469.66;4971612;28;20050;-81
2023/02/18 09:55:18;;;;;;;3.90;1.50;;;;;;;6.36;100.00;100459.25;4981608;28;20051;-80
2023/02/18 09:57:47;;;;;;;5.43;1.60;;;;;;;6.47;100.00;100462.66;4983455;28;20526;-81
2023/02/18 10:00:24;;;;;;;5.00;1.50;;;;;;;6.38;100.00;100452.22;4958025;28;20041;-81
2023/02/18 10:03:00;;;;;;;7.40;1.60;;;;;;;6.31;100.00;100442.69;4971685;28;20046;-81
2023/02/18 10:05:29;;;;;;;5.67;1.87;;;;;;;6.26;100.00;100447.06;4994551;28;20042;-81
2023/02/18 10:08:01;;;;;;;3.67;1.90;;;;;;;6.30;100.00;100449.66;5007166;28;20045;-81
2023/02/18 10:10:45;;;;;;;7.33;1.90;;;;;;;6.28;100.00;100445.31;4989530;28;20410;-80
2023/02/18 10:13:15;;;;;;;7.95;2.47;;;;;;;6.21;100.00;100440.09;5007804;28;20046;-82
2023/02/18 10:15:42;;;;;;;6.00;2.57;;;;;;;6.19;100.00;100431.38;4958873;28;20038;-83
2023/02/18 10:18:30;;;;;;;6.97;2.50;;;;;;;6.13;100.00;100418.28;4990959;28;20046;-81
2023/02/18 10:21:17;;;;;;;12.23;3.53;;;;;;;6.16;100.00;100420.91;4987075;28;20058;-82
2023/02/18 10:23:54;;;;;;;5.67;2.97;;;;;;;6.13;100.00;100417.41;4960506;28;20038;-81
2023/02/18 10:26:21;;;;;;;6.00;2.60;;;;;;;6.08;100.00;100417.47;4974799;28;20594;-84
2023/02/18 10:28:47;;;;;;;3.97;1.87;;;;;;;6.02;100.00;100401.75;4959188;28;20042;-82
2023/02/18 10:31:19;;;;;;;4.10;2.33;;;;;;;5.96;100.00;100391.28;4958975;28;20038;-82
2023/02/18 10:34:04;;;;;;;6.83;2.20;;;;;;;6.07;100.00;100393.88;4960032;28;20046;-82
2023/02/18 10:36:41;;;;;;;;;;;;;;;5.95;100.00;100388.69;5005671;28;20050;-82
2023/02/18 10:39:31;;;;;;;4.27;1.80;;;;;;;5.95;100.00;100384.31;4991106;28;19922;-81
2023/02/18 10:42:04;;;;;;;3.20;1.40;;;;;;;5.97;100.00;100384.28;4986297;28;20042;-81
2023/02/18 10:44:43;;;;;;;3.87;1.70;;;;;;;5.95;100.00;100383.44;4988100;28;20046;-81
2023/02/18 10:47:34;;;;;;;2.23;1.50;;;;;;;5.84;100.00;100380.84;4991346;28;20054;-82
2023/02/18 10:50:32;;;;;;;3.00;1.97;;;;;;;5.79;100.00;100387.88;4986417;28;20072;-81
2023/02/18 10:53:02;;;;;;;13.07;8.57;;;;;;;5.80;100.00;100389.59;5012107;28;20169;-81
2023/02/18 10:55:38;;;;;;;18.03;11.70;;;;;;;5.80;100.00;100387.88;4973204;28;20088;-81
2023/02/18 10:58:53;;;;;;;14.97;13.60;;;;;;;5.84;100.00;100380.84;4985287;28;20042;-81
2023/02/18 11:01:21;;;;;;;6.60;4.70;;;;;;;5.83;100.00;100372.13;4987922;28;20589;-80
2023/02/18 11:03:50;;;;;;;5.73;3.03;;;;;;;5.75;100.00;100379.16;4973122;28;20050;-81
2023/02/18 11:06:21;;;;;;;6.77;4.57;;;;;;;5.71;100.00;100369.56;4970395;28;20049;-80
2023/02/18 11:08:48;;;;;;;3.20;1.63;;;;;;;5.76;100.00;100357.31;4987348;28;20046;-80
2023/02/18 11:11:21;;;;;;;5.53;2.50;;;;;;;5.85;100.00;100356.38;4987907;28;20038;-81
2023/02/18 11:13:59;;;;;;;6.10;4.17;;;;;;;5.83;100.00;100343.28;4959328;28;20096;-80
2023/02/18 11:16:43;;;;;;;4.63;2.70;;;;;;;5.87;100.00;100342.38;4984548;28;20058;-81
2023/02/18 11:19:40;;;;;;;7.18;4.25;;;;;;;5.93;100.00;100326.63;4986166;28;20054;-81
2023/02/18 11:22:07;;;;;;;6.73;4.70;;;;;;;5.92;100.00;100316.16;4991603;28;20042;-82
2023/02/18 11:24:38;;;;;;;4.77;2.30;;;;;;;5.97;100.00;100310.88;4987749;28;20051;-81
2023/02/18 11:27:23;;;;;;;5.70;2.50;;;;;;;5.91;100.00;100299.56;4997455;28;20038;-80
2023/02/18 11:29:53;;;;;;;4.17;2.17;;;;;;;5.95;100.00;100291.66;4986329;28;20719;-82
2023/02/18 11:32:20;;;;;;;5.60;2.47;;;;;;;5.95;100.00;100289.91;4971685;28;20050;-80
2023/02/18 11:34:48;;;;;;;4.17;1.63;;;;;;;6.00;100.00;100272.41;5003833;28;20097;-80
2023/02/18 11:37:20;;;;;;;2.60;1.30;;;;;;;6.04;100.00;100268.84;4952252;28;20046;-80
2023/02/18 11:39:49;;;;;;;5.87;1.80;;;;;;;6.06;100.00;100255.75;5004300;28;20481;-81